createdAt,value
2018-02-20T00:00:31.520Z,34.63
2018-02-20T00:02:59.909Z,32.80
2018-02-20T00:05:28.327Z,33.30
2018-02-20T00:07:56.726Z,32.97
2018-02-20T00:10:25.135Z,31.10
2018-02-20T00:12:53.530Z,34.10
2018-02-20T00:15:22.662Z,31.73
2018-02-20T00:17:51.049Z,29.80
2018-02-20T00:20:19.419Z,30.70
2018-02-20T00:22:47.814Z,30.53
2018-02-20T00:25:16.234Z,34.50
2018-02-20T00:27:44.602Z,30.80
2018-02-20T00:30:13.004Z,30.83
2018-02-20T00:32:42.271Z,31.17
2018-02-20T00:35:10.721Z,31.23
2018-02-20T00:37:39.133Z,31.43
2018-02-20T00:40:07.580Z,31.77
2018-02-20T00:42:35.975Z,33.27
2018-02-20T00:45:04.430Z,31.40
2018-02-20T00:47:32.804Z,30.97
2018-02-20T00:50:01.258Z,30.93
2018-02-20T00:52:30.613Z,32.20
2018-02-20T00:54:58.979Z,33.60
2018-02-20T00:57:27.369Z,32.27
2018-02-20T00:59:55.839Z,34.80
2018-02-20T01:02:24.216Z,30.73
2018-02-20T01:04:52.598Z,33.60
2018-02-20T01:07:20.981Z,33.93
2018-02-20T01:09:49.367Z,33.03
2018-02-20T01:12:17.786Z,32.70
2018-02-20T01:14:46.174Z,33.33
2018-02-20T01:17:15.310Z,33.80
2018-02-20T01:19:43.761Z,34.10
2018-02-20T01:22:12.903Z,30.47
2018-02-20T01:24:41.319Z,32.90
2018-02-20T01:27:10.618Z,29.27
2018-02-20T01:29:39.869Z,30.37
2018-02-20T01:32:08.249Z,27.93
2018-02-20T01:34:36.623Z,30.20
2018-02-20T01:37:04.996Z,30.60
2018-02-20T01:39:33.382Z,28.30
2018-02-20T01:42:01.780Z,27.30
2018-02-20T01:44:30.222Z,31.20
2018-02-20T01:46:58.589Z,28.90
2018-02-20T01:49:26.972Z,29.67
2018-02-20T01:51:55.351Z,29.93
2018-02-20T01:54:23.808Z,29.53
2018-02-20T01:56:52.959Z,29.20
2018-02-20T01:59:21.336Z,29.63
2018-02-20T02:01:49.786Z,29.53
2018-02-20T02:04:18.187Z,28.90
2018-02-20T02:06:46.586Z,27.10
2018-02-20T02:09:14.970Z,29.07
2018-02-20T02:11:43.414Z,30.10
2018-02-20T02:14:11.793Z,28.27
2018-02-20T02:16:40.202Z,30.17
2018-02-20T02:19:08.597Z,29.80
2018-02-20T02:21:36.991Z,29.93
2018-02-20T02:24:06.160Z,30.07
2018-02-20T02:26:34.544Z,29.57
2018-02-20T02:29:02.923Z,30.40
2018-02-20T02:31:31.397Z,28.60
2018-02-20T02:33:59.792Z,30.30
2018-02-20T02:36:28.225Z,30.53
2018-02-20T02:38:56.592Z,28.73
2018-02-20T02:41:24.986Z,30.37
2018-02-20T02:43:53.408Z,29.40
2018-02-20T02:46:21.792Z,30.23
2018-02-20T02:48:50.949Z,30.40
2018-02-20T02:51:19.342Z,30.13
2018-02-20T02:53:47.740Z,27.83
2018-02-20T02:56:16.189Z,27.83
2018-02-20T02:58:44.662Z,28.80
2018-02-20T03:01:13.135Z,28.63
2018-02-20T03:03:41.510Z,30.13
2018-02-20T03:06:09.898Z,29.90
2018-02-20T03:08:38.287Z,28.67
2018-02-20T03:11:06.680Z,30.40
2018-02-20T03:13:35.100Z,30.10
2018-02-20T03:16:04.248Z,32.87
2018-02-20T03:18:32.666Z,31.03
2018-02-20T03:21:01.810Z,33.40
2018-02-20T03:23:30.275Z,31.97
2018-02-20T03:25:58.665Z,31.50
2018-02-20T03:28:27.041Z,33.40
2018-02-20T03:30:55.445Z,34.90
2018-02-20T03:33:23.865Z,32.40
2018-02-20T03:35:53.025Z,33.10
2018-02-20T03:38:21.448Z,32.93
2018-02-20T03:40:49.851Z,31.80
2018-02-20T03:43:18.212Z,33.83
2018-02-20T03:45:46.615Z,31.80
2018-02-20T03:48:15.015Z,34.90
2018-02-20T03:50:43.419Z,30.57
2018-02-20T03:53:12.657Z,36.70
2018-02-20T03:55:41.101Z,33.00
2018-02-20T03:58:09.483Z,36.57
2018-02-20T04:00:38.633Z,35.87
2018-02-20T04:03:07.104Z,34.30
2018-02-20T04:05:35.563Z,34.60
2018-02-20T04:08:03.941Z,32.13
2018-02-20T04:10:32.338Z,33.70
2018-02-20T04:13:00.748Z,32.50
2018-02-20T04:15:29.146Z,34.43
2018-02-20T04:17:57.582Z,33.53
2018-02-20T04:20:25.990Z,31.40
2018-02-20T04:22:54.392Z,32.20
2018-02-20T04:25:23.544Z,34.93
2018-02-20T04:27:51.939Z,35.00
2018-02-20T04:30:21.133Z,29.90
2018-02-20T04:32:49.524Z,34.27
2018-02-20T04:35:17.913Z,32.53
2018-02-20T04:37:46.308Z,35.20
2018-02-20T04:40:14.734Z,33.70
2018-02-20T04:42:43.135Z,34.57
2018-02-20T04:45:11.548Z,35.17
2018-02-20T04:47:40.770Z,35.80
2018-02-20T04:50:09.144Z,35.30
2018-02-20T04:52:37.525Z,34.20
2018-02-20T04:55:05.924Z,33.57
2018-02-20T04:57:34.322Z,35.17
2018-02-20T05:00:02.704Z,30.60
2018-02-20T05:02:31.102Z,33.17
2018-02-20T05:05:00.240Z,32.23
2018-02-20T05:07:28.638Z,34.60
2018-02-20T05:09:57.009Z,36.10
2018-02-20T05:12:25.420Z,35.00
2018-02-20T05:14:53.803Z,34.73
2018-02-20T05:17:22.250Z,35.60
2018-02-20T05:19:50.724Z,34.57
2018-02-20T05:22:19.108Z,33.07
2018-02-20T05:24:48.342Z,35.83
2018-02-20T05:27:16.759Z,33.27
2018-02-20T05:29:45.150Z,35.87
2018-02-20T05:32:13.524Z,35.00
2018-02-20T05:34:41.987Z,36.97
2018-02-20T05:37:10.428Z,36.00
2018-02-20T05:39:38.826Z,35.80
2018-02-20T05:42:07.972Z,36.80
2018-02-20T05:44:36.442Z,33.63
2018-02-20T05:47:04.820Z,36.70
2018-02-20T05:49:33.416Z,36.47
2018-02-20T05:52:01.790Z,36.03
2018-02-20T05:54:30.206Z,35.97
2018-02-20T05:56:58.640Z,35.70
2018-02-20T05:59:27.009Z,37.87
2018-02-20T06:01:55.400Z,37.17
2018-02-20T06:04:23.781Z,38.33
2018-02-20T06:06:52.191Z,37.97
2018-02-20T06:09:20.594Z,35.07
2018-02-20T06:11:48.966Z,35.40
2018-02-20T06:14:17.403Z,39.43
2018-02-20T06:16:45.778Z,39.50
2018-02-20T06:19:14.145Z,37.73
2018-02-20T06:21:42.569Z,36.63
2018-02-20T06:24:10.974Z,40.93
2018-02-20T06:26:40.112Z,39.77
2018-02-20T06:29:08.518Z,38.60
2018-02-20T06:31:36.923Z,38.97
2018-02-20T06:34:05.311Z,39.53
2018-02-20T06:36:34.468Z,38.07
2018-02-20T06:39:02.874Z,39.60
2018-02-20T06:41:31.254Z,39.20
2018-02-20T06:44:00.401Z,40.83
2018-02-20T06:46:28.781Z,38.27
2018-02-20T06:48:57.154Z,39.50
2018-02-20T06:51:25.591Z,40.53
2018-02-20T06:53:54.796Z,37.30
2018-02-20T06:56:23.137Z,40.10
2018-02-20T06:58:51.564Z,40.20
2018-02-20T07:01:19.946Z,40.40
2018-02-20T07:03:48.334Z,40.90
2018-02-20T07:06:16.742Z,42.90
2018-02-20T07:08:45.106Z,40.00
2018-02-20T07:11:13.506Z,39.53
2018-02-20T07:13:41.906Z,40.53
2018-02-20T07:16:10.317Z,42.30
2018-02-20T07:18:38.708Z,39.80
2018-02-20T07:21:07.155Z,38.60
2018-02-20T07:23:36.299Z,42.00
2018-02-20T07:26:04.671Z,39.07
2018-02-20T07:28:33.055Z,41.90
2018-02-20T07:31:01.537Z,39.33
2018-02-20T07:33:29.905Z,41.37
2018-02-20T07:35:58.313Z,41.20
2018-02-20T07:38:27.501Z,42.70
2018-02-20T07:40:55.854Z,40.50
2018-02-20T07:43:24.237Z,42.17
2018-02-20T07:45:52.597Z,43.00
2018-02-20T07:48:20.992Z,42.73
2018-02-20T07:50:49.396Z,41.90
2018-02-20T07:53:17.784Z,44.37
2018-02-20T07:55:46.152Z,43.83
2018-02-20T07:58:14.584Z,46.97
2018-02-20T08:00:43.736Z,45.50
2018-02-20T08:03:12.238Z,45.07
2018-02-20T08:05:40.610Z,46.80
2018-02-20T08:08:09.014Z,44.07
2018-02-20T08:10:38.177Z,49.20
2018-02-20T08:13:06.539Z,48.50
2018-02-20T08:15:34.925Z,47.83
2018-02-20T08:18:03.289Z,48.03
2018-02-20T08:20:31.655Z,52.40
2018-02-20T08:23:00.071Z,50.27
2018-02-20T08:25:28.559Z,51.30
2018-02-20T08:27:56.937Z,53.40
2018-02-20T08:30:25.311Z,53.60
2018-02-20T08:32:53.701Z,51.30
2018-02-20T08:35:22.069Z,47.27
2018-02-20T08:37:50.457Z,49.00
2018-02-20T08:40:22.577Z,51.83
2018-02-20T08:42:50.979Z,52.37
2018-02-20T08:45:19.353Z,53.27
2018-02-20T08:47:47.758Z,52.77
2018-02-20T08:50:16.131Z,56.40
2018-02-20T08:52:44.510Z,53.13
2018-02-20T08:55:12.900Z,51.80
2018-02-20T08:57:42.031Z,53.77
2018-02-20T09:00:10.417Z,55.97
2018-02-20T09:02:38.816Z,53.47
2018-02-20T09:05:07.201Z,49.00
2018-02-20T09:07:35.577Z,51.97
2018-02-20T09:10:04.044Z,52.93
2018-02-20T09:12:32.417Z,53.50
2018-02-20T09:15:00.802Z,56.23
2018-02-20T09:17:29.173Z,51.10
2018-02-20T09:19:57.575Z,54.80
2018-02-20T09:22:25.964Z,55.13
2018-02-20T09:24:54.382Z,55.20
2018-02-20T09:27:22.764Z,51.20
2018-02-20T09:29:51.133Z,52.77
2018-02-20T09:32:20.300Z,53.07
2018-02-20T09:34:48.696Z,53.87
2018-02-20T09:37:17.069Z,56.20
2018-02-20T09:39:45.468Z,56.60
2018-02-20T09:42:13.842Z,55.17
2018-02-20T09:44:42.274Z,54.33
2018-02-20T09:47:10.642Z,53.90
2018-02-20T09:49:39.048Z,52.57
2018-02-20T09:52:07.413Z,55.20
2018-02-20T09:54:35.811Z,53.87
2018-02-20T09:57:04.197Z,54.03
2018-02-20T09:59:32.562Z,54.40
2018-02-20T10:02:01.747Z,54.00
2018-02-20T10:04:30.118Z,56.57
2018-02-20T10:06:58.513Z,56.10
2018-02-20T10:09:26.885Z,53.63
2018-02-20T10:11:55.270Z,58.60
2018-02-20T10:14:23.679Z,56.20
2018-02-20T10:16:52.818Z,55.30
2018-02-20T10:19:21.192Z,54.27
2018-02-20T10:21:49.609Z,58.20
2018-02-20T10:24:17.985Z,56.57
2018-02-20T10:26:46.377Z,54.43
2018-02-20T10:29:14.766Z,53.60
2018-02-20T10:31:43.909Z,53.17
2018-02-20T10:34:12.305Z,54.37
2018-02-20T10:36:40.718Z,55.10
2018-02-20T10:39:09.906Z,54.10
2018-02-20T10:41:38.290Z,56.87
2018-02-20T10:44:06.673Z,58.10
2018-02-20T10:46:35.857Z,55.10
2018-02-20T10:49:04.240Z,54.60
2018-02-20T10:51:32.638Z,52.10
2018-02-20T10:54:01.037Z,55.93
2018-02-20T10:56:29.433Z,52.57
2018-02-20T10:58:57.836Z,51.93
2018-02-20T11:01:26.217Z,53.03
2018-02-20T11:03:54.590Z,56.07
2018-02-20T11:06:22.987Z,54.00
2018-02-20T11:08:51.360Z,54.20
2018-02-20T11:11:19.776Z,51.43
2018-02-20T11:13:48.169Z,54.07
2018-02-20T11:16:16.529Z,53.20
2018-02-20T11:18:44.930Z,53.40
2018-02-20T11:21:13.317Z,54.37
2018-02-20T11:23:41.690Z,54.20
2018-02-20T11:26:10.082Z,53.80
2018-02-20T11:28:38.471Z,51.87
2018-02-20T11:31:06.873Z,50.70
2018-02-20T11:33:35.248Z,52.30
2018-02-20T11:36:03.649Z,51.53
2018-02-20T11:38:32.021Z,52.67
2018-02-20T11:41:01.204Z,54.37
2018-02-20T11:43:29.569Z,54.00
2018-02-20T11:45:57.980Z,50.43
2018-02-20T11:48:26.409Z,52.07
2018-02-20T11:50:55.550Z,52.33
2018-02-20T11:53:24.678Z,48.80
2018-02-20T11:55:53.087Z,49.53
2018-02-20T11:58:21.487Z,52.60
2018-02-20T12:00:49.876Z,51.40
2018-02-20T12:03:19.025Z,50.40
2018-02-20T12:05:47.408Z,48.10
2018-02-20T12:08:15.782Z,54.13
2018-02-20T12:10:44.199Z,51.27
2018-02-20T12:13:12.629Z,50.30
2018-02-20T12:15:41.011Z,49.93
2018-02-20T12:18:09.438Z,51.00
2018-02-20T12:20:37.813Z,52.00
2018-02-20T12:23:06.191Z,50.43
2018-02-20T12:25:34.601Z,49.63
2018-02-20T12:28:02.974Z,49.20
2018-02-20T12:30:31.381Z,49.80
2018-02-20T12:32:59.824Z,46.30
2018-02-20T12:35:28.246Z,47.43
2018-02-20T12:37:56.722Z,48.90
2018-02-20T12:40:25.128Z,50.60
2018-02-20T12:42:53.519Z,52.07
2018-02-20T12:45:21.903Z,51.50
2018-02-20T12:47:50.345Z,52.93
2018-02-20T12:50:18.773Z,54.07
2018-02-20T12:52:47.150Z,48.40
2018-02-20T12:55:15.538Z,51.67
2018-02-20T12:57:44.703Z,52.20
2018-02-20T13:00:13.138Z,51.60
2018-02-20T13:02:41.713Z,53.20
2018-02-20T13:05:10.122Z,50.90
2018-02-20T13:07:39.311Z,54.13
2018-02-20T13:10:07.766Z,52.40
2018-02-20T13:12:36.187Z,54.20
2018-02-20T13:15:04.558Z,51.20
2018-02-20T13:17:33.051Z,52.70
2018-02-20T13:20:01.430Z,53.70
2018-02-20T13:22:29.859Z,58.67
2018-02-20T13:24:58.289Z,58.00
2018-02-20T13:27:26.749Z,56.83
2018-02-20T13:29:55.225Z,55.50
2018-02-20T13:32:23.605Z,59.83
2018-02-20T13:34:52.033Z,54.47
2018-02-20T13:37:20.402Z,55.17
2018-02-20T13:39:48.793Z,57.70
2018-02-20T13:42:17.360Z,57.07
2018-02-20T13:44:45.838Z,58.40
2018-02-20T13:47:14.227Z,62.97
2018-02-20T13:49:42.754Z,61.83
2018-02-20T13:52:12.257Z,61.73
2018-02-20T13:54:40.670Z,62.20
2018-02-20T13:57:09.075Z,63.27
2018-02-20T13:59:37.453Z,61.47
2018-02-20T14:02:05.883Z,60.80
2018-02-20T14:04:34.283Z,57.43
2018-02-20T14:07:02.689Z,60.70
2018-02-20T14:09:31.103Z,58.77
2018-02-20T14:12:00.236Z,61.60
2018-02-20T14:14:28.642Z,60.73
2018-02-20T14:16:57.033Z,59.77
2018-02-20T14:19:25.661Z,60.13
2018-02-20T14:21:54.038Z,59.80
2018-02-20T14:24:22.435Z,61.07
2018-02-20T14:26:50.998Z,61.23
2018-02-20T14:29:19.425Z,60.37
2018-02-20T14:31:47.795Z,60.50
2018-02-20T14:34:16.210Z,60.50
2018-02-20T14:36:45.486Z,55.47
2018-02-20T14:39:13.907Z,57.20
2018-02-20T14:41:42.313Z,56.93
2018-02-20T14:44:10.690Z,55.00
2018-02-20T14:46:39.279Z,61.13
2018-02-20T14:49:07.809Z,58.00
2018-02-20T14:51:36.342Z,58.33
2018-02-20T14:54:04.802Z,61.20
2018-02-20T14:56:33.211Z,61.40
2018-02-20T14:59:01.598Z,60.00
2018-02-20T15:01:30.192Z,59.40
2018-02-20T15:03:58.598Z,65.27
2018-02-20T15:06:26.998Z,62.77
2018-02-20T15:08:55.426Z,72.10
2018-02-20T15:11:23.802Z,64.37
2018-02-20T15:13:52.665Z,62.37
2018-02-20T15:16:21.135Z,64.10
2018-02-20T15:18:49.525Z,68.30
2018-02-20T15:21:17.912Z,68.70
2018-02-20T15:23:46.312Z,67.20
2018-02-20T15:26:14.692Z,68.97
2018-02-20T15:28:43.074Z,74.27
2018-02-20T15:31:11.471Z,77.40
2018-02-20T15:33:39.918Z,72.03
2018-02-20T15:36:08.315Z,70.97
2018-02-20T15:38:36.691Z,71.80
2018-02-20T15:41:05.097Z,74.87
2018-02-20T15:43:33.569Z,72.90
2018-02-20T15:46:02.768Z,73.33
2018-02-20T15:48:31.158Z,77.07
2018-02-20T15:50:59.551Z,73.60
2018-02-20T15:53:27.965Z,73.90
2018-02-20T15:55:56.345Z,72.60
2018-02-20T15:58:24.746Z,72.60
2018-02-20T16:00:53.908Z,71.07
2018-02-20T16:03:22.301Z,69.77
2018-02-20T16:05:50.730Z,64.73
2018-02-20T16:08:19.103Z,66.47
2018-02-20T16:10:47.542Z,67.00
2018-02-20T16:13:16.040Z,69.07
2018-02-20T16:15:49.332Z,63.93
2018-02-20T16:18:18.534Z,70.90
2018-02-20T16:20:47.680Z,67.90
2018-02-20T16:23:16.087Z,65.00
2018-02-20T16:25:44.472Z,65.77
2018-02-20T16:28:12.852Z,67.97
2018-02-20T16:30:41.233Z,66.67
2018-02-20T16:33:09.668Z,65.43
2018-02-20T16:35:38.057Z,64.30
2018-02-20T16:38:06.422Z,66.20
2018-02-20T16:40:34.814Z,63.73
2018-02-20T16:43:03.194Z,64.23
2018-02-20T16:45:31.634Z,62.97
2018-02-20T16:48:00.027Z,65.17
2018-02-20T16:50:28.453Z,63.97
2018-02-20T16:52:56.836Z,60.37
2018-02-20T16:55:25.243Z,62.50
2018-02-20T16:57:54.414Z,64.63
2018-02-20T17:00:22.785Z,63.10
2018-02-20T17:02:51.375Z,62.90
2018-02-20T17:05:19.790Z,63.17
2018-02-20T17:07:48.157Z,63.30
2018-02-20T17:10:17.383Z,66.73
2018-02-20T17:12:45.759Z,62.20
2018-02-20T17:15:14.148Z,68.17
2018-02-20T17:17:42.544Z,62.90
2018-02-20T17:20:10.958Z,61.27
2018-02-20T17:22:39.330Z,67.03
2018-02-20T17:25:07.750Z,63.37
2018-02-20T17:27:36.180Z,60.60
2018-02-20T17:30:04.586Z,58.43
2018-02-20T17:32:33.767Z,60.93
2018-02-20T17:35:02.136Z,60.10
2018-02-20T17:37:30.540Z,63.20
2018-02-20T17:39:59.713Z,60.37
2018-02-20T17:42:28.109Z,65.47
2018-02-20T17:44:57.266Z,65.77
2018-02-20T17:47:26.410Z,61.07
2018-02-20T17:49:55.630Z,57.33
2018-02-20T17:52:24.019Z,56.13
2018-02-20T17:54:52.458Z,60.17
2018-02-20T17:57:21.606Z,57.80
2018-02-20T17:59:49.998Z,56.50
2018-02-20T18:02:18.409Z,55.03
2018-02-20T18:04:47.585Z,55.20
2018-02-20T18:07:15.987Z,55.30
2018-02-20T18:09:44.380Z,51.70
2018-02-20T18:12:12.779Z,52.57
2018-02-20T18:14:41.187Z,49.03
2018-02-20T18:17:09.565Z,51.53
2018-02-20T18:19:37.949Z,50.97
2018-02-20T18:22:06.334Z,49.73
2018-02-20T18:24:34.777Z,49.83
2018-02-20T18:27:03.221Z,46.53
2018-02-20T18:29:32.406Z,46.00
2018-02-20T18:32:00.868Z,43.80
2018-02-20T18:34:29.330Z,45.90
2018-02-20T18:36:57.872Z,44.37
2018-02-20T18:39:27.067Z,47.13
2018-02-20T18:41:56.253Z,42.93
2018-02-20T18:44:24.701Z,45.23
2018-02-20T18:46:53.124Z,44.03
2018-02-20T18:49:22.299Z,42.80
2018-02-20T18:51:50.690Z,43.50
2018-02-20T18:54:19.844Z,43.17
2018-02-20T18:56:48.243Z,43.80
2018-02-20T18:59:16.621Z,44.27
2018-02-20T19:01:45.034Z,45.53
2018-02-20T19:04:14.193Z,44.50
2018-02-20T19:06:42.602Z,43.90
2018-02-20T19:09:11.783Z,48.03
2018-02-20T19:11:40.156Z,45.60
2018-02-20T19:14:08.558Z,45.03
2018-02-20T19:16:37.744Z,45.30
2018-02-20T19:19:06.108Z,41.50
2018-02-20T19:21:34.545Z,42.90
2018-02-20T19:24:02.910Z,44.10
2018-02-20T19:26:31.338Z,43.20
2018-02-20T19:28:59.750Z,40.50
2018-02-20T19:31:28.922Z,42.47
2018-02-20T19:33:57.317Z,40.73
2018-02-20T19:36:26.466Z,41.50
2018-02-20T19:38:55.039Z,38.30
2018-02-20T19:41:23.464Z,41.53
2018-02-20T19:43:51.848Z,37.90
2018-02-20T19:46:20.213Z,39.93
2018-02-20T19:48:48.745Z,38.73
2018-02-20T19:51:17.106Z,37.77
2018-02-20T19:53:45.496Z,43.70
2018-02-20T19:56:13.854Z,38.67
2018-02-20T19:58:43.011Z,36.73
2018-02-20T20:01:11.400Z,36.13
2018-02-20T20:03:39.781Z,37.93
2018-02-20T20:06:08.180Z,37.20
2018-02-20T20:08:36.562Z,39.07
2018-02-20T20:11:05.799Z,37.50
2018-02-20T20:13:34.171Z,38.03
2018-02-20T20:16:02.548Z,40.53
2018-02-20T20:18:30.957Z,38.33
2018-02-20T20:20:59.376Z,36.60
2018-02-20T20:23:28.546Z,38.00
2018-02-20T20:25:56.943Z,40.80
2018-02-20T20:28:25.340Z,38.57
2018-02-20T20:30:53.765Z,36.33
2018-02-20T20:33:22.196Z,37.80
2018-02-20T20:35:51.375Z,39.33
2018-02-20T20:38:19.800Z,37.37
2018-02-20T20:40:48.180Z,37.37
2018-02-20T20:43:16.552Z,38.10
2018-02-20T20:45:44.971Z,36.80
2018-02-20T20:48:13.341Z,35.77
2018-02-20T20:50:41.738Z,35.03
2018-02-20T20:53:10.121Z,35.37
2018-02-20T20:55:39.387Z,33.37
2018-02-20T20:58:07.788Z,34.27
2018-02-20T21:00:36.155Z,36.87
2018-02-20T21:03:04.557Z,33.70
2018-02-20T21:05:32.960Z,33.30
2018-02-20T21:08:02.099Z,33.93
2018-02-20T21:10:30.621Z,32.47
2018-02-20T21:12:59.818Z,33.60
2018-02-20T21:15:28.221Z,32.87
2018-02-20T21:17:56.607Z,32.77
2018-02-20T21:20:25.020Z,31.23
2018-02-20T21:22:53.470Z,31.13
2018-02-20T21:25:22.636Z,29.77
2018-02-20T21:27:51.022Z,29.43
2018-02-20T21:30:20.206Z,26.57
2018-02-20T21:32:48.650Z,27.10
2018-02-20T21:35:17.011Z,28.10
2018-02-20T21:37:45.420Z,28.80
2018-02-20T21:40:13.842Z,25.73
2018-02-20T21:42:42.983Z,27.00
2018-02-20T21:45:11.399Z,26.33
2018-02-20T21:47:39.791Z,26.10
2018-02-20T21:50:08.941Z,27.83
2018-02-20T21:52:37.338Z,27.07
2018-02-20T21:55:05.866Z,26.63
2018-02-20T21:57:34.250Z,28.10
2018-02-20T22:00:02.670Z,25.63
2018-02-20T22:02:31.065Z,27.33
2018-02-20T22:04:59.443Z,24.77
2018-02-20T22:07:27.859Z,26.77
2018-02-20T22:09:56.249Z,26.50
2018-02-20T22:12:24.733Z,27.37
2018-02-20T22:14:53.127Z,24.90
2018-02-20T22:17:21.534Z,24.60
2018-02-20T22:19:49.945Z,25.93
2018-02-20T22:22:18.333Z,26.30
2018-02-20T22:24:46.704Z,24.93
2018-02-20T22:27:15.912Z,24.80
2018-02-20T22:29:44.297Z,25.70
2018-02-20T22:32:12.700Z,25.80
2018-02-20T22:34:41.090Z,26.17
2018-02-20T22:37:09.494Z,25.80
2018-02-20T22:39:37.892Z,24.10
2018-02-20T22:42:07.133Z,24.20
2018-02-20T22:44:35.616Z,25.07
2018-02-20T22:47:04.050Z,26.80
2018-02-20T22:49:33.206Z,25.30
2018-02-20T22:52:01.591Z,27.00
2018-02-20T22:54:29.990Z,26.07
2018-02-20T22:56:58.379Z,25.03
2018-02-20T22:59:27.608Z,25.20
2018-02-20T23:01:56.015Z,25.23
2018-02-20T23:04:24.458Z,25.43
2018-02-20T23:06:52.864Z,24.87
2018-02-20T23:09:21.332Z,27.20
2018-02-20T23:11:49.703Z,23.77
2018-02-20T23:14:18.075Z,27.67
2018-02-20T23:16:46.710Z,24.60
2018-02-20T23:19:15.089Z,24.37
2018-02-20T23:21:43.481Z,26.57
2018-02-20T23:24:11.922Z,26.47
2018-02-20T23:26:40.341Z,24.27
2018-02-20T23:29:08.776Z,23.33
2018-02-20T23:31:37.184Z,25.00
2018-02-20T23:34:05.566Z,24.97
2018-02-20T23:36:33.980Z,23.73
2018-02-20T23:39:02.517Z,24.80
2018-02-20T23:41:30.945Z,25.37
2018-02-20T23:43:59.344Z,24.43
2018-02-20T23:46:27.768Z,22.33
2018-02-20T23:48:56.151Z,24.77
2018-02-20T23:51:29.980Z,24.47
2018-02-20T23:53:59.149Z,25.43
2018-02-20T23:56:27.519Z,23.10
2018-02-20T23:58:55.936Z,23.90
